createdAt,value
2019-03-17T00:00:12.684Z,94.33
2019-03-17T00:01:12.728Z,93.71
2019-03-17T00:02:12.680Z,93.71
2019-03-17T00:03:12.661Z,94.23
2019-03-17T00:04:12.672Z,93.50
2019-03-17T00:05:12.650Z,93.91
2019-03-17T00:06:12.627Z,94.06
2019-03-17T00:07:12.677Z,93.85
2019-03-17T00:08:12.607Z,93.96
2019-03-17T00:09:12.656Z,93.75
2019-03-17T00:10:12.591Z,93.96
2019-03-17T00:11:12.621Z,94.42
2019-03-17T00:12:12.567Z,93.90
2019-03-17T00:13:12.628Z,93.80
2019-03-17T00:14:12.541Z,94.42
2019-03-17T00:15:12.566Z,94.84
2019-03-17T00:16:12.528Z,94.73
2019-03-17T00:17:12.537Z,94.21
2019-03-17T00:18:12.557Z,93.70
2019-03-17T00:19:12.591Z,93.80
2019-03-17T00:20:12.483Z,94.11
2019-03-17T00:21:12.531Z,93.59
2019-03-17T00:22:12.600Z,93.80
2019-03-17T00:23:12.471Z,93.70
2019-03-17T00:24:12.451Z,93.49
2019-03-17T00:25:12.489Z,93.70
2019-03-17T00:26:12.445Z,93.49
2019-03-17T00:27:12.417Z,93.43
2019-03-17T00:28:12.441Z,93.32
2019-03-17T00:29:12.387Z,93.84
2019-03-17T00:30:12.389Z,93.74
2019-03-17T00:31:23.123Z,94.05
2019-03-17T00:32:13.362Z,94.26
2019-03-17T00:33:12.351Z,94.26
2019-03-17T00:34:12.413Z,93.63
2019-03-17T00:35:12.326Z,93.63
2019-03-17T00:36:12.377Z,93.05
2019-03-17T00:37:12.335Z,93.32
2019-03-17T00:38:12.321Z,93.37
2019-03-17T00:39:12.300Z,93.88
2019-03-17T00:40:12.283Z,93.57
2019-03-17T00:41:12.324Z,93.99
2019-03-17T00:42:12.268Z,94.05
2019-03-17T00:43:12.265Z,93.84
2019-03-17T00:44:12.239Z,93.88
2019-03-17T00:45:12.223Z,94.20
2019-03-17T00:46:12.210Z,93.99
2019-03-17T00:47:12.233Z,93.99
2019-03-17T00:48:12.188Z,94.30
2019-03-17T00:49:12.204Z,94.45
2019-03-17T00:50:12.171Z,94.34
2019-03-17T00:51:12.194Z,94.65
2019-03-17T00:52:12.142Z,94.34
2019-03-17T00:53:12.145Z,94.76
2019-03-17T00:54:12.124Z,93.93
2019-03-17T00:55:12.136Z,94.20
2019-03-17T00:56:12.136Z,93.99
2019-03-17T00:57:12.161Z,93.99
2019-03-17T00:58:12.158Z,94.30
2019-03-17T00:59:12.088Z,94.20
2019-03-17T01:00:12.075Z,93.93
2019-03-17T01:01:12.155Z,93.82
2019-03-17T01:02:12.060Z,94.24
2019-03-17T01:03:12.155Z,93.82
2019-03-17T01:04:12.040Z,94.13
2019-03-17T01:05:12.014Z,93.93
2019-03-17T01:06:12.046Z,94.18
2019-03-17T01:07:12.046Z,94.07
2019-03-17T01:08:12.049Z,93.97
2019-03-17T01:09:12.032Z,94.38
2019-03-17T01:10:11.954Z,93.91
2019-03-17T01:11:11.949Z,94.18
2019-03-17T01:12:11.933Z,94.12
2019-03-17T01:13:11.988Z,94.38
2019-03-17T01:14:11.916Z,94.07
2019-03-17T01:15:11.915Z,94.22
2019-03-17T01:16:11.897Z,93.97
2019-03-17T01:17:11.879Z,94.49
2019-03-17T01:18:11.917Z,94.22
2019-03-17T01:19:11.905Z,94.18
2019-03-17T01:20:11.878Z,93.97
2019-03-17T01:21:11.924Z,93.55
2019-03-17T01:22:11.861Z,93.55
2019-03-17T01:23:11.821Z,94.01
2019-03-17T01:24:11.837Z,93.60
2019-03-17T01:25:11.823Z,93.87
2019-03-17T01:26:11.790Z,93.87
2019-03-17T01:27:11.790Z,93.70
2019-03-17T01:28:11.822Z,93.97
2019-03-17T01:29:11.764Z,93.76
2019-03-17T01:30:11.764Z,93.80
2019-03-17T01:31:11.843Z,93.24
2019-03-17T01:32:11.745Z,92.97
2019-03-17T01:33:11.744Z,92.41
2019-03-17T01:34:11.737Z,92.30
2019-03-17T01:35:11.747Z,92.10
2019-03-17T01:36:11.706Z,92.41
2019-03-17T01:37:11.698Z,92.20
2019-03-17T01:38:11.693Z,92.20
2019-03-17T01:39:11.667Z,91.99
2019-03-17T01:40:11.683Z,91.99
2019-03-17T01:41:11.644Z,91.99
2019-03-17T01:42:11.636Z,91.47
2019-03-17T01:43:11.706Z,91.12
2019-03-17T01:44:11.641Z,90.50
2019-03-17T01:45:11.667Z,90.23
2019-03-17T01:46:11.652Z,90.33
2019-03-17T01:47:11.575Z,90.44
2019-03-17T01:48:11.564Z,90.12
2019-03-17T01:49:11.635Z,89.98
2019-03-17T01:50:11.562Z,89.67
2019-03-17T01:51:11.550Z,89.04
2019-03-17T01:52:11.585Z,89.25
2019-03-17T01:53:11.534Z,88.87
2019-03-17T01:54:11.535Z,89.67
2019-03-17T01:55:11.531Z,90.33
2019-03-17T01:56:11.483Z,90.44
2019-03-17T01:57:11.489Z,90.02
2019-03-17T01:58:11.445Z,89.81
2019-03-17T01:59:11.473Z,89.54
2019-03-17T02:00:11.431Z,89.70
2019-03-17T02:01:11.983Z,89.39
2019-03-17T02:02:11.486Z,89.29
2019-03-17T02:03:11.432Z,88.98
2019-03-17T02:04:11.391Z,88.87
2019-03-17T02:05:21.569Z,88.92
2019-03-17T02:06:12.480Z,89.43
2019-03-17T02:07:11.413Z,88.92
2019-03-17T02:08:11.359Z,88.92
2019-03-17T02:09:11.343Z,89.54
2019-03-17T02:10:11.390Z,88.71
2019-03-17T02:11:11.362Z,89.23
2019-03-17T02:12:11.466Z,89.12
2019-03-17T02:13:11.336Z,89.33
2019-03-17T02:14:11.291Z,90.00
2019-03-17T02:15:11.297Z,90.20
2019-03-17T02:16:11.314Z,89.89
2019-03-17T02:17:11.256Z,90.20
2019-03-17T02:18:11.322Z,89.94
2019-03-17T02:19:11.236Z,90.52
2019-03-17T02:20:11.221Z,90.25
2019-03-17T02:21:11.244Z,89.52
2019-03-17T02:22:11.234Z,89.62
2019-03-17T02:23:11.196Z,89.27
2019-03-17T02:24:11.202Z,89.06
2019-03-17T02:25:11.225Z,88.96
2019-03-17T02:26:11.205Z,90.10
2019-03-17T02:27:11.170Z,89.31
2019-03-17T02:28:11.148Z,89.10
2019-03-17T02:29:11.125Z,89.83
2019-03-17T02:30:11.132Z,89.62
2019-03-17T02:31:11.165Z,89.73
2019-03-17T02:32:11.155Z,89.83
2019-03-17T02:33:11.127Z,89.31
2019-03-17T02:34:12.122Z,89.83
2019-03-17T02:35:11.126Z,89.31
2019-03-17T02:36:11.091Z,89.62
2019-03-17T02:37:11.046Z,90.19
2019-03-17T02:38:11.087Z,90.19
2019-03-17T02:39:11.035Z,90.25
2019-03-17T02:40:11.089Z,90.35
2019-03-17T02:41:11.011Z,90.39
2019-03-17T02:42:11.108Z,90.19
2019-03-17T02:43:11.008Z,89.94
2019-03-17T02:44:11.033Z,89.56
2019-03-17T02:45:11.002Z,89.10
2019-03-17T02:46:10.943Z,89.35
2019-03-17T02:47:10.950Z,89.20
2019-03-17T02:48:10.966Z,88.93
2019-03-17T02:49:10.966Z,89.00
2019-03-17T02:50:10.925Z,88.73
2019-03-17T02:51:10.893Z,88.93
2019-03-17T02:52:10.911Z,89.04
2019-03-17T02:53:10.886Z,89.35
2019-03-17T02:54:11.026Z,89.35
2019-03-17T02:55:10.922Z,89.35
2019-03-17T02:56:10.860Z,89.45
2019-03-17T02:57:10.830Z,89.87
2019-03-17T02:58:10.835Z,89.35
2019-03-17T02:59:10.895Z,88.37
2019-03-17T03:00:10.836Z,88.17
2019-03-17T03:01:10.861Z,87.85
2019-03-17T03:02:10.828Z,87.43
2019-03-17T03:03:10.822Z,87.65
2019-03-17T03:04:10.763Z,87.58
2019-03-17T03:05:10.761Z,87.33
2019-03-17T03:06:10.788Z,87.06
2019-03-17T03:07:10.794Z,86.96
2019-03-17T03:08:10.742Z,87.99
2019-03-17T03:09:10.708Z,87.58
2019-03-17T03:10:10.723Z,87.79
2019-03-17T03:11:10.722Z,88.10
2019-03-17T03:12:10.709Z,88.20
2019-03-17T03:13:10.755Z,87.99
2019-03-17T03:14:10.662Z,88.87
2019-03-17T03:15:10.645Z,89.08
2019-03-17T03:16:10.713Z,89.18
2019-03-17T03:17:10.622Z,89.50
2019-03-17T03:18:10.653Z,89.39
2019-03-17T03:19:10.628Z,89.08
2019-03-17T03:20:10.610Z,89.18
2019-03-17T03:21:10.649Z,88.76
2019-03-17T03:22:10.608Z,88.24
2019-03-17T03:23:10.660Z,88.14
2019-03-17T03:24:10.581Z,87.93
2019-03-17T03:25:10.556Z,87.16
2019-03-17T03:26:10.623Z,86.96
2019-03-17T03:27:10.544Z,87.10
2019-03-17T03:28:10.572Z,87.10
2019-03-17T03:29:10.706Z,87.30
2019-03-17T03:30:10.759Z,87.10
2019-03-17T03:31:10.482Z,88.14
2019-03-17T03:32:10.511Z,87.73
2019-03-17T03:33:10.463Z,87.20
2019-03-17T03:34:10.464Z,86.58
2019-03-17T03:35:10.479Z,86.27
2019-03-17T03:36:11.852Z,86.47
2019-03-17T03:37:10.424Z,86.54
2019-03-17T03:38:10.473Z,86.58
2019-03-17T03:39:10.401Z,86.58
2019-03-17T03:40:10.391Z,86.79
2019-03-17T03:41:10.418Z,86.79
2019-03-17T03:42:10.459Z,86.27
2019-03-17T03:43:10.417Z,86.58
2019-03-17T03:44:10.389Z,87.04
2019-03-17T03:45:10.343Z,86.37
2019-03-17T03:46:10.321Z,86.68
2019-03-17T03:47:10.377Z,86.27
2019-03-17T03:48:10.318Z,85.33
2019-03-17T03:49:10.312Z,85.53
2019-03-17T03:50:10.308Z,86.16
2019-03-17T03:51:10.279Z,84.91
2019-03-17T03:52:10.270Z,85.02
2019-03-17T03:53:10.279Z,85.12
2019-03-17T03:54:10.408Z,85.22
2019-03-17T03:55:10.239Z,85.96
2019-03-17T03:56:10.241Z,86.37
2019-03-17T03:57:10.265Z,85.78
2019-03-17T03:58:10.209Z,84.39
2019-03-17T03:59:10.189Z,84.81
2019-03-17T04:00:10.202Z,84.60
2019-03-17T04:01:10.194Z,84.50
2019-03-17T04:02:10.158Z,83.56
2019-03-17T04:03:10.164Z,83.56
2019-03-17T04:04:10.141Z,84.91
2019-03-17T04:05:10.136Z,84.60
2019-03-17T04:06:25.149Z,84.70
2019-03-17T04:07:11.126Z,84.18
2019-03-17T04:08:10.095Z,84.39
2019-03-17T04:09:10.140Z,83.87
2019-03-17T04:10:10.138Z,83.56
2019-03-17T04:11:10.160Z,83.42
2019-03-17T04:12:10.075Z,83.45
2019-03-17T04:13:10.060Z,83.87
2019-03-17T04:14:10.034Z,84.18
2019-03-17T04:15:10.033Z,83.66
2019-03-17T04:16:10.037Z,84.60
2019-03-17T04:17:09.998Z,84.28
2019-03-17T04:18:10.012Z,83.66
2019-03-17T04:19:10.011Z,83.87
2019-03-17T04:20:09.979Z,83.97
2019-03-17T04:21:10.025Z,83.45
2019-03-17T04:22:09.949Z,83.18
2019-03-17T04:23:09.952Z,83.56
2019-03-17T04:24:10.054Z,82.93
2019-03-17T04:25:09.953Z,82.93
2019-03-17T04:26:09.998Z,82.41
2019-03-17T04:27:09.905Z,82.41
2019-03-17T04:28:09.909Z,82.20
2019-03-17T04:29:09.885Z,81.75
2019-03-17T04:30:10.039Z,82.20
2019-03-17T04:31:09.867Z,81.99
2019-03-17T04:32:09.845Z,82.51
2019-03-17T04:33:09.841Z,81.89
2019-03-17T04:34:09.879Z,81.89
2019-03-17T04:35:09.823Z,81.99
2019-03-17T04:36:09.924Z,80.74
2019-03-17T04:37:09.805Z,80.95
2019-03-17T04:38:09.844Z,81.43
2019-03-17T04:39:09.776Z,81.68
2019-03-17T04:40:09.828Z,81.89
2019-03-17T04:41:09.762Z,81.99
2019-03-17T04:42:09.766Z,81.79
2019-03-17T04:43:09.817Z,82.55
2019-03-17T04:44:20.412Z,82.55
2019-03-17T04:45:10.739Z,82.51
2019-03-17T04:46:09.718Z,82.97
2019-03-17T04:47:09.746Z,82.97
2019-03-17T04:48:09.701Z,83.39
2019-03-17T04:49:09.698Z,83.39
2019-03-17T04:50:09.689Z,83.59
2019-03-17T04:51:09.645Z,83.80
2019-03-17T04:52:09.650Z,83.91
2019-03-17T04:53:09.625Z,82.87
2019-03-17T04:54:09.682Z,82.62
2019-03-17T04:55:09.630Z,82.45
2019-03-17T04:56:09.651Z,82.97
2019-03-17T04:57:09.587Z,82.97
2019-03-17T04:58:09.579Z,82.97
2019-03-17T04:59:09.577Z,82.76
2019-03-17T05:00:09.612Z,82.97
2019-03-17T05:01:09.557Z,82.76
2019-03-17T05:02:09.541Z,82.51
2019-03-17T05:03:09.567Z,82.55
2019-03-17T05:04:09.541Z,82.45
2019-03-17T05:05:09.554Z,84.12
2019-03-17T05:06:09.506Z,84.12
2019-03-17T05:07:09.548Z,84.47
2019-03-17T05:08:09.467Z,85.30
2019-03-17T05:09:09.473Z,86.49
2019-03-17T05:10:09.457Z,86.49
2019-03-17T05:11:09.578Z,86.49
2019-03-17T05:12:09.465Z,85.76
2019-03-17T05:13:09.592Z,85.55
2019-03-17T05:14:09.416Z,84.92
2019-03-17T05:15:09.415Z,85.44
2019-03-17T05:16:09.471Z,84.82
2019-03-17T05:17:09.406Z,83.74
2019-03-17T05:18:09.432Z,83.01
2019-03-17T05:19:09.384Z,82.03
2019-03-17T05:20:09.386Z,81.26
2019-03-17T05:21:09.343Z,80.64
2019-03-17T05:22:09.355Z,80.85
2019-03-17T05:23:09.333Z,80.85
2019-03-17T05:24:09.368Z,80.74
2019-03-17T05:25:09.345Z,80.64
2019-03-17T05:26:09.344Z,80.95
2019-03-17T05:27:09.342Z,81.05
2019-03-17T05:28:09.278Z,81.16
2019-03-17T05:29:09.291Z,81.05
2019-03-17T05:30:09.271Z,81.79
2019-03-17T05:31:09.275Z,82.45
2019-03-17T05:32:09.252Z,82.24
2019-03-17T05:33:09.214Z,82.45
2019-03-17T05:34:09.201Z,82.97
2019-03-17T05:35:09.203Z,82.65
2019-03-17T05:36:09.198Z,82.87
2019-03-17T05:37:09.278Z,82.87
2019-03-17T05:38:09.287Z,82.45
2019-03-17T05:39:09.167Z,82.65
2019-03-17T05:40:09.141Z,81.72
2019-03-17T05:41:09.126Z,81.58
2019-03-17T05:42:09.233Z,80.74
2019-03-17T05:43:09.124Z,80.78
2019-03-17T05:44:09.126Z,80.95
2019-03-17T05:45:09.123Z,80.12
2019-03-17T05:46:09.081Z,80.16
2019-03-17T05:47:09.094Z,79.49
2019-03-17T05:48:09.113Z,80.22
2019-03-17T05:49:09.071Z,81.09
2019-03-17T05:50:09.035Z,81.20
2019-03-17T05:51:09.033Z,81.20
2019-03-17T05:52:09.021Z,80.99
2019-03-17T05:53:09.011Z,81.09
2019-03-17T05:54:09.033Z,81.20
2019-03-17T05:55:09.005Z,81.05
2019-03-17T05:56:08.975Z,80.57
2019-03-17T05:57:08.957Z,80.26
2019-03-17T05:58:16.048Z,79.70
2019-03-17T05:59:08.941Z,79.53
2019-03-17T06:00:08.975Z,79.70
2019-03-17T06:01:08.924Z,79.49
2019-03-17T06:02:08.925Z,79.08
2019-03-17T06:03:08.900Z,78.24
2019-03-17T06:04:08.891Z,77.79
2019-03-17T06:05:08.879Z,77.69
2019-03-17T06:06:08.887Z,77.69
2019-03-17T06:07:18.264Z,77.17
2019-03-17T06:08:09.846Z,77.37
2019-03-17T06:09:08.849Z,77.17
2019-03-17T06:10:08.826Z,77.27
2019-03-17T06:11:08.816Z,77.48
2019-03-17T06:12:08.855Z,77.48
2019-03-17T06:13:08.793Z,76.61
2019-03-17T06:14:08.785Z,75.88
2019-03-17T06:15:08.775Z,75.43
2019-03-17T06:16:08.765Z,75.12
2019-03-17T06:17:08.755Z,75.01
2019-03-17T06:18:08.755Z,75.12
2019-03-17T06:19:08.733Z,76.16
2019-03-17T06:20:08.723Z,75.15
2019-03-17T06:21:08.720Z,76.82
2019-03-17T06:22:08.701Z,77.34
2019-03-17T06:23:08.691Z,76.20
2019-03-17T06:24:08.698Z,76.09
2019-03-17T06:25:08.693Z,76.26
2019-03-17T06:26:08.660Z,75.71
2019-03-17T06:27:08.650Z,74.53
2019-03-17T06:28:08.637Z,73.46
2019-03-17T06:29:08.627Z,72.94
2019-03-17T06:30:08.666Z,72.69
2019-03-17T06:31:08.606Z,71.76
2019-03-17T06:32:08.596Z,69.45
2019-03-17T06:33:08.586Z,68.25
2019-03-17T06:34:08.576Z,67.15
2019-03-17T06:35:08.566Z,65.42
2019-03-17T06:36:08.599Z,65.70
2019-03-17T06:37:08.547Z,63.85
2019-03-17T06:38:08.536Z,62.85
2019-03-17T06:39:08.522Z,63.62
2019-03-17T06:40:08.512Z,62.76
2019-03-17T06:41:08.502Z,61.19
2019-03-17T06:42:08.506Z,61.16
2019-03-17T06:43:08.485Z,61.31
2019-03-17T06:44:08.470Z,59.07
2019-03-17T06:45:08.458Z,59.61
2019-03-17T06:46:08.449Z,61.40
2019-03-17T06:47:08.439Z,62.37
2019-03-17T06:48:08.444Z,57.50
2019-03-17T06:49:08.418Z,57.65
2019-03-17T06:50:08.429Z,57.34
2019-03-17T06:51:08.397Z,57.31
2019-03-17T06:52:08.387Z,56.23
2019-03-17T06:53:08.376Z,56.98
2019-03-17T06:54:08.419Z,53.20
2019-03-17T06:55:08.353Z,49.83
2019-03-17T06:56:08.341Z,50.42
2019-03-17T06:57:08.334Z,51.20
2019-03-17T06:58:08.321Z,53.56
2019-03-17T06:59:08.309Z,55.57
2019-03-17T07:00:08.316Z,57.44
2019-03-17T07:01:08.290Z,58.65
2019-03-17T07:02:08.277Z,57.31
2019-03-17T07:03:08.299Z,58.75
2019-03-17T07:04:08.258Z,58.16
2019-03-17T07:05:08.245Z,58.01
2019-03-17T07:06:08.248Z,58.97
2019-03-17T07:07:08.228Z,59.98
2019-03-17T07:08:08.219Z,60.52
2019-03-17T07:09:08.203Z,63.69
2019-03-17T07:10:08.193Z,59.61
2019-03-17T07:11:10.899Z,58.35
2019-03-17T07:12:08.187Z,58.01
2019-03-17T07:13:08.162Z,60.79
2019-03-17T07:14:08.149Z,59.14
2019-03-17T07:15:08.143Z,57.91
2019-03-17T07:16:08.127Z,59.23
2019-03-17T07:17:08.123Z,61.52
2019-03-17T07:18:08.151Z,60.60
2019-03-17T07:19:08.096Z,61.87
2019-03-17T07:20:08.088Z,62.07
2019-03-17T07:21:08.075Z,62.87
2019-03-17T07:22:08.079Z,63.39
2019-03-17T07:23:08.053Z,62.76
2019-03-17T07:24:08.059Z,63.21
2019-03-17T07:25:08.031Z,63.72
2019-03-17T07:26:08.025Z,62.97
2019-03-17T07:27:08.012Z,61.26
2019-03-17T07:28:08.001Z,59.17
2019-03-17T07:29:07.989Z,58.97
2019-03-17T07:30:08.044Z,59.81
2019-03-17T07:31:07.966Z,57.57
2019-03-17T07:32:07.957Z,58.06
2019-03-17T07:33:07.947Z,56.70
2019-03-17T07:34:07.936Z,55.26
2019-03-17T07:35:07.927Z,55.49
2019-03-17T07:36:07.935Z,55.54
2019-03-17T07:37:07.918Z,54.72
2019-03-17T07:38:07.892Z,50.52
2019-03-17T07:39:12.188Z,51.88
2019-03-17T07:40:07.873Z,50.83
2019-03-17T07:41:07.862Z,50.25
2019-03-17T07:42:07.950Z,48.97
2019-03-17T07:43:07.838Z,49.68
2019-03-17T07:44:07.830Z,51.01
2019-03-17T07:45:07.818Z,50.40
2019-03-17T07:46:07.805Z,49.16
2019-03-17T07:47:07.796Z,47.79
2019-03-17T07:48:07.801Z,48.44
2019-03-17T07:49:07.774Z,49.22
2019-03-17T07:50:07.764Z,49.62
2019-03-17T07:51:07.756Z,48.55
2019-03-17T07:52:07.743Z,49.41
2019-03-17T07:53:07.730Z,51.93
2019-03-17T07:54:07.737Z,52.83
2019-03-17T07:55:07.730Z,50.23
2019-03-17T07:56:07.699Z,49.71
2019-03-17T07:57:07.689Z,48.59
2019-03-17T07:58:07.685Z,47.58
2019-03-17T07:59:07.670Z,47.32
2019-03-17T08:00:07.669Z,48.00
2019-03-17T08:01:07.649Z,50.42
2019-03-17T08:02:07.634Z,52.67
2019-03-17T08:03:07.625Z,52.90
2019-03-17T08:04:07.612Z,55.02
2019-03-17T08:05:07.602Z,56.95
2019-03-17T08:06:07.607Z,59.03
2019-03-17T08:07:07.583Z,59.13
2019-03-17T08:08:09.790Z,60.47
2019-03-17T08:09:07.560Z,62.39
2019-03-17T08:10:07.547Z,60.41
2019-03-17T08:11:07.537Z,60.10
2019-03-17T08:12:07.553Z,61.02
2019-03-17T08:13:07.515Z,60.31
2019-03-17T08:14:07.512Z,62.46
2019-03-17T08:15:07.492Z,59.00
2019-03-17T08:16:07.483Z,60.54
2019-03-17T08:17:07.473Z,61.95
2019-03-17T08:18:07.553Z,57.15
2019-03-17T08:19:07.451Z,54.28
2019-03-17T08:20:07.444Z,54.57
2019-03-17T08:21:07.454Z,53.44
2019-03-17T08:22:07.419Z,52.25
2019-03-17T08:23:07.409Z,51.68
2019-03-17T08:24:07.413Z,54.49
2019-03-17T08:25:07.387Z,54.80
2019-03-17T08:26:07.377Z,56.81
2019-03-17T08:27:07.364Z,54.26
2019-03-17T08:28:07.353Z,55.74
2019-03-17T08:29:07.366Z,56.43
2019-03-17T08:30:07.403Z,56.94
2019-03-17T08:31:07.324Z,54.87
2019-03-17T08:32:07.316Z,56.23
2019-03-17T08:33:07.325Z,54.95
2019-03-17T08:34:07.290Z,56.92
2019-03-17T08:35:07.363Z,54.77
2019-03-17T08:36:07.285Z,52.76
2019-03-17T08:37:07.257Z,51.51
2019-03-17T08:38:07.241Z,51.14
2019-03-17T08:39:07.237Z,54.69
2019-03-17T08:40:07.260Z,58.61
2019-03-17T08:41:07.213Z,60.60
2019-03-17T08:42:07.248Z,62.51
2019-03-17T08:43:07.194Z,62.14
2019-03-17T08:44:07.180Z,59.31
2019-03-17T08:45:07.174Z,58.54
2019-03-17T08:46:07.161Z,54.64
2019-03-17T08:47:07.152Z,56.63
2019-03-17T08:48:07.201Z,54.74
2019-03-17T08:49:07.126Z,57.02
2019-03-17T08:50:07.116Z,58.48
2019-03-17T08:51:07.107Z,60.17
2019-03-17T08:52:07.095Z,61.65
2019-03-17T08:53:07.085Z,60.58
2019-03-17T08:54:07.119Z,61.60
2019-03-17T08:55:07.062Z,61.88
2019-03-17T08:56:07.052Z,61.88
2019-03-17T08:57:07.039Z,63.28
2019-03-17T08:58:07.030Z,61.51
2019-03-17T08:59:07.024Z,60.28
2019-03-17T09:00:07.063Z,58.96
2019-03-17T09:01:06.998Z,58.55
2019-03-17T09:02:07.003Z,58.52
2019-03-17T09:03:06.975Z,58.29
2019-03-17T09:04:06.975Z,56.55
2019-03-17T09:05:06.971Z,55.96
2019-03-17T09:06:07.001Z,50.93
2019-03-17T09:07:06.933Z,49.69
2019-03-17T09:08:06.922Z,49.84
2019-03-17T09:09:06.912Z,49.02
2019-03-17T09:10:06.902Z,45.79
2019-03-17T09:11:06.885Z,43.38
2019-03-17T09:12:06.934Z,43.99
2019-03-17T09:13:06.873Z,45.87
2019-03-17T09:14:06.864Z,48.24
2019-03-17T09:15:06.847Z,48.63
2019-03-17T09:16:06.839Z,46.28
2019-03-17T09:17:14.345Z,45.39
2019-03-17T09:18:07.869Z,46.04
2019-03-17T09:19:06.807Z,43.67
2019-03-17T09:20:06.795Z,44.46
2019-03-17T09:21:06.802Z,43.85
2019-03-17T09:22:06.770Z,43.04
2019-03-17T09:23:06.759Z,44.20
2019-03-17T09:24:16.666Z,43.10
2019-03-17T09:25:07.740Z,40.84
2019-03-17T09:26:06.731Z,40.03
2019-03-17T09:27:06.723Z,39.53
2019-03-17T09:28:06.724Z,40.08
2019-03-17T09:29:06.697Z,41.26
2019-03-17T09:30:06.780Z,41.78
2019-03-17T09:31:07.587Z,39.95
2019-03-17T09:32:06.663Z,39.30
2019-03-17T09:33:06.653Z,41.20
2019-03-17T09:34:06.646Z,42.88
2019-03-17T09:35:06.644Z,43.51
2019-03-17T09:36:06.679Z,42.27
2019-03-17T09:37:06.613Z,41.06
2019-03-17T09:38:06.630Z,39.30
2019-03-17T09:39:06.598Z,36.90
2019-03-17T09:40:06.580Z,39.76
2019-03-17T09:41:06.567Z,38.87
2019-03-17T09:42:06.618Z,41.09
2019-03-17T09:43:06.549Z,39.04
2019-03-17T09:44:06.537Z,39.24
2019-03-17T09:45:06.525Z,36.52
2019-03-17T09:46:06.513Z,37.26
2019-03-17T09:47:06.503Z,37.89
2019-03-17T09:48:06.545Z,38.11
2019-03-17T09:49:06.488Z,39.86
2019-03-17T09:50:06.481Z,39.44
2019-03-17T09:51:06.468Z,39.26
2019-03-17T09:52:06.456Z,40.25
2019-03-17T09:53:06.439Z,40.45
2019-03-17T09:54:06.475Z,41.26
2019-03-17T09:55:06.423Z,39.97
2019-03-17T09:56:06.407Z,41.16
2019-03-17T09:57:06.398Z,40.44
2019-03-17T09:58:06.385Z,37.77
2019-03-17T09:59:06.385Z,38.76
2019-03-17T10:00:06.414Z,37.45
2019-03-17T10:01:06.354Z,36.76
2019-03-17T10:02:06.344Z,36.15
2019-03-17T10:03:06.334Z,35.97
2019-03-17T10:04:06.319Z,34.79
2019-03-17T10:05:06.308Z,32.49
2019-03-17T10:06:06.356Z,29.58
2019-03-17T10:07:06.290Z,32.44
2019-03-17T10:08:06.334Z,29.52
2019-03-17T10:09:06.267Z,31.14
2019-03-17T10:10:06.254Z,31.76
2019-03-17T10:11:06.250Z,33.94
2019-03-17T10:12:06.296Z,32.43
2019-03-17T10:13:06.936Z,31.97
2019-03-17T10:14:06.214Z,31.58
2019-03-17T10:15:06.209Z,28.41
2019-03-17T10:16:06.202Z,26.94
2019-03-17T10:17:06.180Z,29.22
2019-03-17T10:18:06.235Z,31.20
2019-03-17T10:19:06.158Z,31.45
2019-03-17T10:20:06.154Z,33.99
2019-03-17T10:21:06.139Z,32.20
2019-03-17T10:22:06.129Z,35.26
2019-03-17T10:23:06.118Z,34.56
2019-03-17T10:24:06.368Z,33.26
2019-03-17T10:25:06.101Z,33.15
2019-03-17T10:26:06.091Z,33.92
2019-03-17T10:27:06.078Z,31.12
2019-03-17T10:28:06.068Z,32.90
2019-03-17T10:29:06.053Z,28.99
2019-03-17T10:30:06.121Z,30.90
2019-03-17T10:31:06.045Z,29.72
2019-03-17T10:32:06.027Z,28.92
2019-03-17T10:33:06.011Z,30.35
2019-03-17T10:34:06.001Z,30.71
2019-03-17T10:35:05.994Z,31.43
2019-03-17T10:36:06.059Z,28.85
2019-03-17T10:37:05.969Z,30.50
2019-03-17T10:38:05.958Z,31.30
2019-03-17T10:39:12.434Z,29.12
2019-03-17T10:40:06.933Z,27.58
2019-03-17T10:41:05.926Z,26.41
2019-03-17T10:42:05.970Z,28.65
2019-03-17T10:43:05.964Z,27.32
2019-03-17T10:44:05.896Z,28.30
2019-03-17T10:45:05.884Z,27.89
2019-03-17T10:46:05.879Z,26.28
2019-03-17T10:47:05.862Z,26.41
2019-03-17T10:48:05.910Z,26.51
2019-03-17T10:49:05.842Z,29.43
2019-03-17T10:50:05.833Z,27.36
2019-03-17T10:51:05.817Z,25.55
2019-03-17T10:52:05.811Z,27.00
2019-03-17T10:53:05.797Z,28.53
2019-03-17T10:54:05.840Z,29.53
2019-03-17T10:55:05.775Z,28.34
2019-03-17T10:56:05.766Z,25.49
2019-03-17T10:57:05.761Z,25.99
2019-03-17T10:58:05.744Z,26.38
2019-03-17T10:59:05.734Z,26.72
2019-03-17T11:00:05.790Z,28.30
2019-03-17T11:01:05.711Z,28.62
2019-03-17T11:02:05.703Z,29.82
2019-03-17T11:03:05.693Z,28.21
2019-03-17T11:04:05.686Z,28.30
2019-03-17T11:05:05.706Z,28.03
2019-03-17T11:06:05.709Z,28.64
2019-03-17T11:07:05.654Z,28.30
2019-03-17T11:08:05.641Z,28.78
2019-03-17T11:09:05.628Z,27.24
2019-03-17T11:10:05.619Z,26.31
2019-03-17T11:11:05.609Z,26.10
2019-03-17T11:12:05.657Z,26.87
2019-03-17T11:13:05.667Z,27.58
2019-03-17T11:14:05.577Z,26.27
2019-03-17T11:15:05.568Z,28.39
2019-03-17T11:16:05.560Z,28.46
2019-03-17T11:17:05.545Z,30.51
2019-03-17T11:18:05.584Z,32.48
2019-03-17T11:19:05.526Z,32.14
2019-03-17T11:20:05.519Z,32.56
2019-03-17T11:21:05.506Z,32.57
2019-03-17T11:22:05.493Z,33.59
2019-03-17T11:23:05.487Z,34.19
2019-03-17T11:24:05.573Z,32.60
2019-03-17T11:25:05.465Z,34.22
2019-03-17T11:26:05.453Z,33.81
2019-03-17T11:27:05.441Z,33.41
2019-03-17T11:28:05.426Z,34.30
2019-03-17T11:29:05.423Z,36.12
2019-03-17T11:30:05.462Z,34.91
2019-03-17T11:31:05.399Z,32.78
2019-03-17T11:32:06.687Z,33.55
2019-03-17T11:33:05.372Z,32.73
2019-03-17T11:34:05.365Z,34.34
2019-03-17T11:35:05.353Z,33.35
2019-03-17T11:36:05.387Z,33.35
2019-03-17T11:37:05.335Z,33.11
2019-03-17T11:38:05.322Z,33.50
2019-03-17T11:39:05.309Z,29.69
2019-03-17T11:40:05.302Z,31.50
2019-03-17T11:41:05.290Z,31.85
2019-03-17T11:42:05.328Z,32.70
2019-03-17T11:43:05.267Z,32.31
2019-03-17T11:44:05.258Z,32.11
2019-03-17T11:45:05.295Z,31.84
2019-03-17T11:46:05.239Z,33.15
2019-03-17T11:47:05.229Z,32.64
2019-03-17T11:48:05.277Z,33.15
2019-03-17T11:49:05.208Z,33.05
2019-03-17T11:50:05.200Z,30.80
2019-03-17T11:51:05.187Z,30.47
2019-03-17T11:52:05.175Z,32.26
2019-03-17T11:53:05.164Z,30.43
2019-03-17T11:54:05.203Z,30.76
2019-03-17T11:55:05.155Z,28.31
2019-03-17T11:56:05.135Z,28.38
2019-03-17T11:57:05.151Z,28.52
2019-03-17T11:58:05.110Z,30.10
2019-03-17T11:59:05.100Z,31.17
2019-03-17T12:00:12.493Z,32.48
2019-03-17T12:01:05.081Z,32.39
2019-03-17T12:02:05.077Z,31.39
2019-03-17T12:03:05.064Z,31.98
2019-03-17T12:04:05.054Z,32.40
2019-03-17T12:05:05.039Z,29.38
2019-03-17T12:06:05.090Z,29.94
2019-03-17T12:07:05.017Z,28.33
2019-03-17T12:08:05.004Z,30.32
2019-03-17T12:09:04.995Z,29.55
2019-03-17T12:10:05.007Z,29.36
2019-03-17T12:11:04.973Z,28.72
2019-03-17T12:12:05.020Z,29.12
2019-03-17T12:13:04.953Z,29.43
2019-03-17T12:14:04.939Z,28.58
2019-03-17T12:15:04.947Z,28.87
2019-03-17T12:16:04.929Z,28.18
2019-03-17T12:17:04.918Z,28.38
2019-03-17T12:18:04.961Z,30.14
2019-03-17T12:19:04.897Z,31.45
2019-03-17T12:20:04.881Z,31.56
2019-03-17T12:21:04.868Z,31.14
2019-03-17T12:22:09.277Z,31.00
2019-03-17T12:23:04.846Z,31.95
2019-03-17T12:24:04.902Z,31.95
2019-03-17T12:25:04.859Z,33.07
2019-03-17T12:26:04.817Z,32.78
2019-03-17T12:27:04.804Z,33.05
2019-03-17T12:28:04.795Z,32.98
2019-03-17T12:29:04.783Z,33.20
2019-03-17T12:30:04.832Z,34.31
2019-03-17T12:31:04.763Z,36.66
2019-03-17T12:32:04.750Z,36.87
2019-03-17T12:33:04.743Z,38.22
2019-03-17T12:34:04.733Z,38.95
2019-03-17T12:35:04.729Z,39.65
2019-03-17T12:36:04.756Z,41.99
2019-03-17T12:37:04.695Z,42.07
2019-03-17T12:38:04.690Z,41.25
2019-03-17T12:39:04.675Z,41.87
2019-03-17T12:40:04.666Z,42.29
2019-03-17T12:41:04.654Z,41.08
2019-03-17T12:42:04.699Z,41.08
2019-03-17T12:43:04.635Z,42.82
2019-03-17T12:44:04.627Z,42.72
2019-03-17T12:45:04.612Z,43.02
2019-03-17T12:46:04.613Z,42.74
2019-03-17T12:47:04.589Z,43.44
2019-03-17T12:48:04.632Z,42.96
2019-03-17T12:49:04.592Z,43.46
2019-03-17T12:50:04.557Z,43.71
2019-03-17T12:51:04.554Z,45.12
2019-03-17T12:52:04.545Z,45.55